createdAt,value
2022-09-01T00:00:15.242Z,30.40
2022-09-01T00:01:22.138Z,30.87
2022-09-01T00:02:27.373Z,30.86
2022-09-01T00:03:29.705Z,30.44
2022-09-01T00:04:32.205Z,30.58
2022-09-01T00:05:34.897Z,30.68
2022-09-01T00:06:38.667Z,30.63
2022-09-01T00:07:40.759Z,30.45
2022-09-01T00:08:42.514Z,30.60
2022-09-01T00:09:44.368Z,30.64
2022-09-01T00:10:46.404Z,30.59
2022-09-01T00:11:52.614Z,30.99
2022-09-01T00:12:54.378Z,30.35
2022-09-01T00:13:57.315Z,30.35
2022-09-01T00:14:59.377Z,30.88
2022-09-01T00:16:04.331Z,30.74
2022-09-01T00:17:09.904Z,30.66
2022-09-01T00:18:11.715Z,30.60
2022-09-01T00:19:14.029Z,30.65
2022-09-01T00:20:20.059Z,30.58
2022-09-01T00:21:31.330Z,30.62
2022-09-01T00:22:33.925Z,30.62
2022-09-01T00:23:35.901Z,30.65
2022-09-01T00:24:40.763Z,30.81
2022-09-01T00:25:42.741Z,30.91
2022-09-01T00:26:45.243Z,30.74
2022-09-01T00:27:48.548Z,30.57
2022-09-01T00:28:51.148Z,30.42
2022-09-01T00:29:53.219Z,30.72
2022-09-01T00:30:55.510Z,30.70
2022-09-01T00:31:57.378Z,30.92
2022-09-01T00:32:59.198Z,30.72
2022-09-01T00:34:02.806Z,30.67
2022-09-01T00:35:05.603Z,30.84
2022-09-01T00:36:08.184Z,30.74
2022-09-01T00:37:10.032Z,30.59
2022-09-01T00:38:12.064Z,31.03
2022-09-01T00:39:14.071Z,30.79
2022-09-01T00:40:17.613Z,30.97
2022-09-01T00:41:23.290Z,30.38
2022-09-01T00:42:25.083Z,30.83
2022-09-01T00:43:45.586Z,30.73
2022-09-01T00:44:47.605Z,30.52
2022-09-01T00:45:51.950Z,30.70
2022-09-01T00:46:56.684Z,30.49
2022-09-01T00:47:58.496Z,30.73
2022-09-01T00:49:08.579Z,30.70
2022-09-01T00:50:12.715Z,30.56
2022-09-01T00:51:15.598Z,30.55
2022-09-01T00:52:26.311Z,30.68
2022-09-01T00:53:28.623Z,30.56
2022-09-01T00:54:36.106Z,30.65
2022-09-01T00:55:38.655Z,30.63
2022-09-01T00:56:46.495Z,30.96
2022-09-01T00:57:50.143Z,30.66
2022-09-01T00:58:53.845Z,31.02
2022-09-01T01:00:02.469Z,31.02
2022-09-01T01:01:06.749Z,30.65
2022-09-01T01:02:09.061Z,30.77
2022-09-01T01:03:13.376Z,30.87
2022-09-01T01:04:15.555Z,30.62
2022-09-01T01:05:17.404Z,31.13
2022-09-01T01:06:24.032Z,30.82
2022-09-01T01:07:29.665Z,30.51
2022-09-01T01:08:36.159Z,30.82
2022-09-01T01:09:43.100Z,30.57
2022-09-01T01:10:45.022Z,30.43
2022-09-01T01:11:47.602Z,30.76
2022-09-01T01:12:51.738Z,30.97
2022-09-01T01:13:59.816Z,30.45
2022-09-01T01:15:03.827Z,30.96
2022-09-01T01:16:08.050Z,31.25
2022-09-01T01:17:09.799Z,30.76
2022-09-01T01:18:14.330Z,30.99
2022-09-01T01:20:02.398Z,30.42
2022-09-01T01:21:25.741Z,30.42
2022-09-01T01:23:09.056Z,30.60
2022-09-01T01:24:29.301Z,30.69
2022-09-01T01:25:36.342Z,30.55
2022-09-01T01:26:38.882Z,30.74
2022-09-01T01:27:43.868Z,30.53
2022-09-01T01:28:45.774Z,30.45
2022-09-01T01:29:48.770Z,30.98
2022-09-01T01:31:01.890Z,30.75
2022-09-01T01:32:12.373Z,30.99
2022-09-01T01:33:14.395Z,30.72
2022-09-01T01:34:18.570Z,31.06
2022-09-01T01:35:21.914Z,30.85
2022-09-01T01:36:32.474Z,30.58
2022-09-01T01:37:36.498Z,30.69
2022-09-01T01:38:43.311Z,30.75
2022-09-01T01:39:45.858Z,31.09
2022-09-01T01:40:48.012Z,30.72
2022-09-01T01:41:52.866Z,30.75
2022-09-01T01:42:57.322Z,30.62
2022-09-01T01:44:05.719Z,31.33
2022-09-01T01:45:12.743Z,30.77
2022-09-01T01:46:15.771Z,30.94
2022-09-01T01:47:18.228Z,31.06
2022-09-01T01:48:24.050Z,30.67
2022-09-01T01:49:31.268Z,31.07
2022-09-01T01:50:36.048Z,30.59
2022-09-01T01:51:38.390Z,30.68
2022-09-01T01:52:40.475Z,31.10
2022-09-01T01:53:52.863Z,31.05
2022-09-01T01:54:56.751Z,31.21
2022-09-01T01:56:00.162Z,30.94
2022-09-01T01:57:06.003Z,31.23
2022-09-01T01:58:12.369Z,30.75
2022-09-01T01:59:16.895Z,30.73
2022-09-01T02:00:30.723Z,31.06
2022-09-01T02:01:33.178Z,30.98
2022-09-01T02:02:35.257Z,30.73
2022-09-01T02:03:38.710Z,30.86
2022-09-01T02:04:41.690Z,31.06
2022-09-01T02:05:49.870Z,30.89
2022-09-01T02:06:55.987Z,31.06
2022-09-01T02:08:01.929Z,30.85
2022-09-01T02:09:04.287Z,30.72
2022-09-01T02:10:06.375Z,31.02
2022-09-01T02:11:09.166Z,30.98
2022-09-01T02:12:11.213Z,31.22
2022-09-01T02:13:21.012Z,31.16
2022-09-01T02:14:23.427Z,31.12
2022-09-01T02:15:25.678Z,31.13
2022-09-01T02:16:32.797Z,31.16
2022-09-01T02:17:35.917Z,30.99
2022-09-01T02:18:42.151Z,31.37
2022-09-01T02:19:43.910Z,30.83
2022-09-01T02:20:47.855Z,31.18
2022-09-01T02:21:54.402Z,31.13
2022-09-01T02:22:56.862Z,30.76
2022-09-01T02:24:02.123Z,30.90
2022-09-01T02:25:07.108Z,30.89
2022-09-01T02:26:18.505Z,31.11
2022-09-01T02:27:25.952Z,30.61
2022-09-01T02:28:32.297Z,31.36
2022-09-01T02:29:37.064Z,30.85
2022-09-01T02:30:47.873Z,30.87
2022-09-01T02:31:52.852Z,30.83
2022-09-01T02:32:55.247Z,30.79
2022-09-01T02:33:57.070Z,31.00
2022-09-01T02:35:01.445Z,30.72
2022-09-01T02:36:11.254Z,31.16
2022-09-01T02:37:13.017Z,30.89
2022-09-01T02:38:14.783Z,31.44
2022-09-01T02:39:20.338Z,30.90
2022-09-01T02:40:22.255Z,31.20
2022-09-01T02:41:30.199Z,30.89
2022-09-01T02:42:33.271Z,30.79
2022-09-01T02:43:35.544Z,31.20
2022-09-01T02:44:41.416Z,31.28
2022-09-01T02:45:44.177Z,31.27
2022-09-01T02:46:46.967Z,31.17
2022-09-01T02:47:48.896Z,31.37
2022-09-01T02:48:51.970Z,31.09
2022-09-01T02:49:54.809Z,30.74
2022-09-01T02:50:57.451Z,31.16
2022-09-01T02:52:02.875Z,31.04
2022-09-01T02:53:10.146Z,31.47
2022-09-01T02:54:17.667Z,31.29
2022-09-01T02:55:22.810Z,30.79
2022-09-01T02:56:27.508Z,31.04
2022-09-01T02:57:34.565Z,30.84
2022-09-01T02:58:46.266Z,31.22
2022-09-01T02:59:48.542Z,31.29
2022-09-01T03:00:55.747Z,31.17
2022-09-01T03:01:58.190Z,30.78
2022-09-01T03:03:01.783Z,30.96
2022-09-01T03:04:05.949Z,31.00
2022-09-01T03:05:08.465Z,30.78
2022-09-01T03:06:12.944Z,31.30
2022-09-01T03:07:18.458Z,31.15
2022-09-01T03:08:25.182Z,31.43
2022-09-01T03:09:27.803Z,30.84
2022-09-01T03:10:36.256Z,31.29
2022-09-01T03:11:40.730Z,31.35
2022-09-01T03:12:42.559Z,30.93
2022-09-01T03:13:45.083Z,31.00
2022-09-01T03:14:46.905Z,30.96
2022-09-01T03:15:50.332Z,31.04
2022-09-01T03:16:52.831Z,31.37
2022-09-01T03:17:55.559Z,31.03
2022-09-01T03:18:57.762Z,31.39
2022-09-01T03:19:59.757Z,31.29
2022-09-01T03:21:02.538Z,31.39
2022-09-01T03:22:04.843Z,31.00
2022-09-01T03:23:10.213Z,31.00
2022-09-01T03:24:16.924Z,30.85
2022-09-01T03:25:19.683Z,31.09
2022-09-01T03:26:24.622Z,31.45
2022-09-01T03:27:26.491Z,30.96
2022-09-01T03:28:29.124Z,30.83
2022-09-01T03:29:31.038Z,31.38
2022-09-01T03:30:35.567Z,31.04
2022-09-01T03:31:37.931Z,31.00
2022-09-01T03:32:40.121Z,31.07
2022-09-01T03:33:43.471Z,31.35
2022-09-01T03:34:53.747Z,31.52
2022-09-01T03:35:56.892Z,30.96
2022-09-01T03:36:58.715Z,31.52
2022-09-01T03:38:02.796Z,30.83
2022-09-01T03:39:04.579Z,30.93
2022-09-01T03:40:09.169Z,31.32
2022-09-01T03:41:13.311Z,30.89
2022-09-01T03:42:22.815Z,30.86
2022-09-01T03:43:27.751Z,31.11
2022-09-01T03:44:40.383Z,31.06
2022-09-01T03:45:42.923Z,31.17
2022-09-01T03:46:45.835Z,31.03
2022-09-01T03:47:48.336Z,31.40
2022-09-01T03:48:58.719Z,30.98
2022-09-01T03:50:02.114Z,30.97
2022-09-01T03:51:05.116Z,31.53
2022-09-01T03:52:09.036Z,31.29
2022-09-01T03:53:13.372Z,31.43
2022-09-01T03:54:15.685Z,31.08
2022-09-01T03:55:23.338Z,31.04
2022-09-01T03:56:28.963Z,31.33
2022-09-01T03:57:32.483Z,30.99
2022-09-01T03:58:35.540Z,31.36
2022-09-01T03:59:43.459Z,31.03
2022-09-01T04:00:56.955Z,31.38
2022-09-01T04:02:00.570Z,31.00
2022-09-01T04:03:04.892Z,30.99
2022-09-01T04:04:07.972Z,31.16
2022-09-01T04:05:10.055Z,30.91
2022-09-01T04:06:12.776Z,31.19
2022-09-01T04:07:19.076Z,30.74
2022-09-01T04:08:32.668Z,31.60
2022-09-01T04:09:35.531Z,31.21
2022-09-01T04:10:44.369Z,31.32
2022-09-01T04:11:47.010Z,31.02
2022-09-01T04:12:51.087Z,30.89
2022-09-01T04:13:52.986Z,31.05
2022-09-01T04:14:55.087Z,30.93
2022-09-01T04:15:58.699Z,31.24
2022-09-01T04:17:18.818Z,31.40
2022-09-01T04:18:21.626Z,30.76
2022-09-01T04:19:26.667Z,31.35
2022-09-01T04:20:39.900Z,31.06
2022-09-01T04:21:44.047Z,31.06
2022-09-01T04:22:50.671Z,31.34
2022-09-01T04:23:52.514Z,30.86
2022-09-01T04:24:54.267Z,31.15
2022-09-01T04:26:08.997Z,31.50
2022-09-01T04:27:11.745Z,31.13
2022-09-01T04:28:23.100Z,31.55
2022-09-01T04:29:28.778Z,31.18
2022-09-01T04:30:32.067Z,31.29
2022-09-01T04:31:38.049Z,31.61
2022-09-01T04:32:40.426Z,31.42
2022-09-01T04:33:44.691Z,31.24
2022-09-01T04:34:47.023Z,31.20
2022-09-01T04:35:52.246Z,31.54
2022-09-01T04:36:55.467Z,31.41
2022-09-01T04:37:57.229Z,31.22
2022-09-01T04:39:01.449Z,30.99
2022-09-01T04:40:04.661Z,31.56
2022-09-01T04:41:07.927Z,31.20
2022-09-01T04:42:10.471Z,31.51
2022-09-01T04:43:12.414Z,31.14
2022-09-01T04:44:16.888Z,31.08
2022-09-01T04:45:22.470Z,31.35
2022-09-01T04:46:29.580Z,31.10
2022-09-01T04:47:36.265Z,31.17
2022-09-01T04:48:45.928Z,31.23
2022-09-01T04:49:49.266Z,30.80
2022-09-01T04:50:52.114Z,31.33
2022-09-01T04:52:00.743Z,31.35
2022-09-01T04:53:06.106Z,30.98
2022-09-01T04:54:14.796Z,31.34
2022-09-01T04:55:18.234Z,31.22
2022-09-01T04:56:23.027Z,30.94
2022-09-01T04:57:38.932Z,31.55
2022-09-01T04:58:40.710Z,31.45
2022-09-01T04:59:43.283Z,30.97
2022-09-01T05:00:52.382Z,31.07
2022-09-01T05:01:57.612Z,30.89
2022-09-01T05:03:04.723Z,31.35
2022-09-01T05:04:29.446Z,30.93
2022-09-01T05:05:58.492Z,31.07
2022-09-01T05:07:01.582Z,30.75
2022-09-01T05:08:23.836Z,31.36
2022-09-01T05:09:30.163Z,30.88
2022-09-01T05:10:33.417Z,31.00
2022-09-01T05:11:53.151Z,31.25
2022-09-01T05:13:01.827Z,31.30
2022-09-01T05:14:06.822Z,30.79
2022-09-01T05:15:09.777Z,31.47
2022-09-01T05:16:15.241Z,31.46
2022-09-01T05:17:19.744Z,31.26
2022-09-01T05:18:24.707Z,31.20
2022-09-01T05:19:29.104Z,30.63
2022-09-01T05:20:33.542Z,31.19
2022-09-01T05:21:38.814Z,31.01
2022-09-01T05:22:42.120Z,30.65
2022-09-01T05:23:46.424Z,30.72
2022-09-01T05:24:54.913Z,30.98
2022-09-01T05:25:57.304Z,30.78
2022-09-01T05:27:00.498Z,30.51
2022-09-01T05:28:03.344Z,30.82
2022-09-01T05:29:10.845Z,30.47
2022-09-01T05:30:16.968Z,30.16
2022-09-01T05:31:19.838Z,30.51
2022-09-01T05:32:26.188Z,30.48
2022-09-01T05:33:28.703Z,30.74
2022-09-01T05:34:32.457Z,30.55
2022-09-01T05:35:34.675Z,30.37
2022-09-01T05:36:41.978Z,30.54
2022-09-01T05:37:43.846Z,30.51
2022-09-01T05:38:48.519Z,29.91
2022-09-01T05:39:50.438Z,30.25
2022-09-01T05:41:03.594Z,30.33
2022-09-01T05:42:08.584Z,30.00
2022-09-01T05:43:14.303Z,30.03
2022-09-01T05:44:17.122Z,30.07
2022-09-01T05:45:18.982Z,30.31
2022-09-01T05:46:24.577Z,30.06
2022-09-01T05:47:26.424Z,29.83
2022-09-01T05:48:31.603Z,29.61
2022-09-01T05:49:33.654Z,29.99
2022-09-01T05:50:42.955Z,29.81
2022-09-01T05:51:51.827Z,29.88
2022-09-01T05:52:57.148Z,29.57
2022-09-01T05:53:59.358Z,29.54
2022-09-01T05:55:03.334Z,29.29
2022-09-01T05:56:09.362Z,29.51
2022-09-01T05:57:33.336Z,29.41
2022-09-01T05:59:59.482Z,29.16
2022-09-01T06:01:02.743Z,29.19
2022-09-01T06:02:08.950Z,29.21
2022-09-01T06:03:11.550Z,29.08
2022-09-01T06:04:16.875Z,29.39
2022-09-01T06:05:20.112Z,29.27
2022-09-01T06:07:05.677Z,29.20
2022-09-01T06:08:10.826Z,29.09
2022-09-01T06:09:14.498Z,28.99
2022-09-01T06:10:16.699Z,29.04
2022-09-01T06:11:19.926Z,29.33
2022-09-01T06:12:24.071Z,28.96
2022-09-01T06:13:27.640Z,29.08
2022-09-01T06:14:29.455Z,28.75
2022-09-01T06:15:32.454Z,28.97
2022-09-01T06:16:36.223Z,29.04
2022-09-01T06:17:39.797Z,29.21
2022-09-01T06:18:43.349Z,29.06
2022-09-01T06:19:45.705Z,28.66
2022-09-01T06:20:49.518Z,29.42
2022-09-01T06:21:52.169Z,28.97
2022-09-01T06:22:54.285Z,28.84
2022-09-01T06:23:58.274Z,28.88
2022-09-01T06:25:03.026Z,29.09
2022-09-01T06:26:29.871Z,29.24
2022-09-01T06:27:38.897Z,28.75
2022-09-01T06:28:41.452Z,28.78
2022-09-01T06:29:43.795Z,28.95
2022-09-01T06:30:45.705Z,29.04
2022-09-01T06:31:51.801Z,28.99
2022-09-01T06:32:55.194Z,28.87
2022-09-01T06:33:57.999Z,29.09
2022-09-01T06:35:00.532Z,28.79
2022-09-01T06:36:04.148Z,28.76
2022-09-01T06:37:07.062Z,29.10
2022-09-01T06:38:11.963Z,29.53
2022-09-01T06:39:22.415Z,29.30
2022-09-01T06:40:27.951Z,29.05
2022-09-01T06:41:31.550Z,28.99
2022-09-01T06:42:35.359Z,29.09
2022-09-01T06:43:39.498Z,28.83
2022-09-01T06:44:41.366Z,29.06
2022-09-01T06:45:54.787Z,28.89
2022-09-01T06:47:01.174Z,29.05
2022-09-01T06:48:03.643Z,28.92
2022-09-01T06:49:06.048Z,28.98
2022-09-01T06:50:08.743Z,28.87
2022-09-01T06:51:15.706Z,28.94
2022-09-01T06:52:20.942Z,29.38
2022-09-01T06:53:38.944Z,29.08
2022-09-01T06:54:44.090Z,28.83
2022-09-01T06:55:49.363Z,29.01
2022-09-01T06:56:53.624Z,28.80
2022-09-01T06:58:07.176Z,28.86
2022-09-01T06:59:10.134Z,28.90
2022-09-01T07:00:21.136Z,28.62
2022-09-01T07:01:26.269Z,28.75
2022-09-01T07:02:33.827Z,29.01
2022-09-01T07:03:58.559Z,28.93
2022-09-01T07:10:18.511Z,28.61
2022-09-01T07:13:08.947Z,28.60
2022-09-01T07:14:18.715Z,28.95
2022-09-01T07:16:52.032Z,28.68
2022-09-01T07:17:58.346Z,28.76
2022-09-01T07:19:01.827Z,28.97
2022-09-01T07:21:42.021Z,28.78
2022-09-01T07:23:06.243Z,28.69
2022-09-01T07:24:11.756Z,28.51
2022-09-01T07:25:22.891Z,28.61
2022-09-01T07:26:47.237Z,28.71
2022-09-01T07:27:50.648Z,28.72
2022-09-01T07:29:00.982Z,28.68
2022-09-01T07:30:03.555Z,28.46
2022-09-01T07:32:47.958Z,28.68
2022-09-01T07:33:54.239Z,28.73
2022-09-01T07:34:57.203Z,28.77
2022-09-01T07:38:49.504Z,28.58
2022-09-01T07:43:40.140Z,28.43
2022-09-01T07:46:37.657Z,28.49
2022-09-01T07:47:53.177Z,28.26
2022-09-01T07:51:43.528Z,28.01
2022-09-01T07:52:49.622Z,28.21
2022-09-01T07:53:52.350Z,28.25
2022-09-01T07:54:55.559Z,28.45
2022-09-01T07:55:59.962Z,28.10
2022-09-01T07:57:02.026Z,28.88
2022-09-01T07:58:05.256Z,28.45
2022-09-01T07:59:08.298Z,28.35
2022-09-01T08:00:16.119Z,28.22
2022-09-01T08:01:27.181Z,28.43
2022-09-01T08:02:29.849Z,28.54
2022-09-01T08:03:31.856Z,28.40
2022-09-01T08:04:34.664Z,28.36
2022-09-01T08:05:37.207Z,28.40
2022-09-01T08:06:39.490Z,28.20
2022-09-01T08:07:59.444Z,28.46
2022-09-01T08:09:07.251Z,27.92
2022-09-01T08:10:20.199Z,27.94
2022-09-01T08:12:59.746Z,28.05
2022-09-01T08:14:02.478Z,28.13
2022-09-01T08:15:41.367Z,28.00
2022-09-01T08:16:39.431Z,28.16
2022-09-01T08:17:52.137Z,27.97
2022-09-01T08:18:58.923Z,28.12
2022-09-01T08:20:26.207Z,28.17
2022-09-01T08:21:35.407Z,28.09
2022-09-01T08:22:39.244Z,27.77
2022-09-01T08:23:52.654Z,27.58
2022-09-01T08:24:54.754Z,27.86
2022-09-01T08:25:57.509Z,27.99
2022-09-01T08:27:00.156Z,27.63
2022-09-01T08:28:03.232Z,27.85
2022-09-01T08:29:05.175Z,27.87
2022-09-01T08:30:14.271Z,27.88
2022-09-01T08:31:19.117Z,27.93
2022-09-01T08:32:23.243Z,27.94
2022-09-01T08:33:26.511Z,28.04
2022-09-01T08:34:29.011Z,27.99
2022-09-01T08:35:31.203Z,27.88
2022-09-01T08:36:35.354Z,27.91
2022-09-01T08:37:38.891Z,27.78
2022-09-01T08:38:41.530Z,27.82
2022-09-01T08:39:43.832Z,28.02
2022-09-01T08:40:57.183Z,27.92
2022-09-01T08:42:24.998Z,27.78
2022-09-01T08:43:46.895Z,28.03
2022-09-01T08:45:01.166Z,28.00
2022-09-01T08:46:28.340Z,27.70
2022-09-01T08:47:43.592Z,27.80
2022-09-01T08:49:24.157Z,28.00
2022-09-01T08:50:55.694Z,27.69
2022-09-01T08:52:33.336Z,27.82
2022-09-01T08:53:46.643Z,27.85
2022-09-01T08:54:53.915Z,27.91
2022-09-01T08:55:58.709Z,27.71
2022-09-01T08:57:14.319Z,27.89
2022-09-01T08:58:34.658Z,27.86
2022-09-01T09:00:15.521Z,27.85
2022-09-01T09:01:38.624Z,27.61
2022-09-01T09:03:11.337Z,27.74
2022-09-01T09:04:57.574Z,27.48
2022-09-01T09:06:20.389Z,27.58
2022-09-01T09:07:27.802Z,27.67
2022-09-01T09:08:56.857Z,27.63
2022-09-01T09:10:17.200Z,27.62
2022-09-01T09:11:46.927Z,27.56
2022-09-01T09:13:06.612Z,27.59
2022-09-01T09:14:30.061Z,27.50
2022-09-01T09:15:44.028Z,27.46
2022-09-01T09:16:51.592Z,27.50
2022-09-01T09:18:39.131Z,27.73
2022-09-01T09:19:44.347Z,27.47
2022-09-01T09:20:46.175Z,27.67
2022-09-01T09:21:50.345Z,27.61
2022-09-01T09:22:53.727Z,27.68
2022-09-01T09:24:06.404Z,27.95
2022-09-01T09:25:09.499Z,27.82
2022-09-01T09:26:16.655Z,27.82
2022-09-01T09:27:28.768Z,27.81
2022-09-01T09:28:30.496Z,27.58
2022-09-01T09:29:32.441Z,27.52
2022-09-01T09:30:34.369Z,27.58
2022-09-01T09:31:45.794Z,27.61
2022-09-01T09:34:36.951Z,27.85
2022-09-01T09:35:42.908Z,27.30
2022-09-01T09:36:52.341Z,27.55
2022-09-01T09:37:56.712Z,27.35
2022-09-01T09:39:13.610Z,27.41
2022-09-01T09:40:25.529Z,27.39
2022-09-01T09:41:27.654Z,27.59
2022-09-01T09:42:34.106Z,27.51
2022-09-01T09:43:47.586Z,27.43
2022-09-01T09:44:52.930Z,27.63
2022-09-01T09:46:24.726Z,27.56
2022-09-01T09:47:44.016Z,27.55
2022-09-01T09:48:47.618Z,27.48
2022-09-01T09:49:49.441Z,27.68
2022-09-01T09:50:51.160Z,27.68
2022-09-01T09:51:54.818Z,27.60
2022-09-01T09:53:29.610Z,27.54
2022-09-01T09:54:33.525Z,27.64
2022-09-01T09:55:35.334Z,27.51
2022-09-01T09:56:37.142Z,27.55
2022-09-01T09:57:41.579Z,27.50
2022-09-01T09:58:46.695Z,27.78
2022-09-01T10:00:09.147Z,27.52
2022-09-01T10:01:22.532Z,27.43
2022-09-01T10:02:32.707Z,27.65
2022-09-01T10:03:38.894Z,27.53
2022-09-01T10:04:42.985Z,27.60
2022-09-01T10:05:48.512Z,27.70
2022-09-01T10:06:50.267Z,27.33
2022-09-01T10:07:53.574Z,27.25
2022-09-01T10:08:55.419Z,27.70
2022-09-01T10:10:00.715Z,27.63
2022-09-01T10:11:05.582Z,27.75
2022-09-01T10:12:11.219Z,27.68
2022-09-01T10:13:18.182Z,27.77
2022-09-01T10:14:51.631Z,27.61
2022-09-01T10:16:03.625Z,27.60
2022-09-01T10:17:20.213Z,27.69
2022-09-01T10:18:29.435Z,27.59
2022-09-01T10:19:35.879Z,27.43
2022-09-01T10:20:39.717Z,27.40
2022-09-01T10:21:43.021Z,27.54
2022-09-01T10:22:44.976Z,27.51
2022-09-01T10:23:46.948Z,27.51
2022-09-01T10:24:50.290Z,27.43
2022-09-01T10:25:56.624Z,27.70
2022-09-01T10:27:03.209Z,27.42
2022-09-01T10:28:21.177Z,27.59
2022-09-01T10:29:47.440Z,27.37
2022-09-01T10:30:51.445Z,27.36
2022-09-01T10:32:28.094Z,27.23
2022-09-01T10:33:22.232Z,27.12
2022-09-01T10:34:24.618Z,27.37
2022-09-01T10:35:34.334Z,27.46
2022-09-01T10:36:37.774Z,27.37
2022-09-01T10:37:41.431Z,27.57
2022-09-01T10:38:52.702Z,27.50
2022-09-01T10:40:29.846Z,27.16
2022-09-01T10:41:44.481Z,27.22
2022-09-01T10:42:53.980Z,27.12
2022-09-01T10:44:10.803Z,27.29
2022-09-01T10:45:23.159Z,27.40
2022-09-01T10:46:27.657Z,27.35
2022-09-01T10:47:40.535Z,27.42
2022-09-01T10:48:55.748Z,27.46
2022-09-01T10:50:01.623Z,27.40
2022-09-01T10:51:18.796Z,27.39
2022-09-01T10:52:54.164Z,27.62
2022-09-01T10:54:02.040Z,27.15
2022-09-01T10:55:06.455Z,27.31
2022-09-01T10:56:23.583Z,27.42
2022-09-01T10:57:48.250Z,27.27
2022-09-01T10:59:41.778Z,27.40
2022-09-01T11:01:10.601Z,27.04
2022-09-01T11:02:24.882Z,27.16
2022-09-01T11:03:42.229Z,27.03
2022-09-01T11:04:49.712Z,26.84
2022-09-01T11:06:11.199Z,26.85
2022-09-01T11:07:44.324Z,26.49
2022-09-01T11:08:50.783Z,27.03
2022-09-01T11:10:38.318Z,26.90
2022-09-01T11:11:55.788Z,26.88
2022-09-01T11:13:35.960Z,26.83
2022-09-01T11:14:57.402Z,26.93
2022-09-01T11:17:52.354Z,26.98
2022-09-01T11:18:55.212Z,27.02
2022-09-01T11:20:00.044Z,27.11
2022-09-01T11:21:16.716Z,26.96
2022-09-01T11:22:38.100Z,27.10
2022-09-01T11:23:41.317Z,27.05
2022-09-01T11:24:44.294Z,27.03
2022-09-01T11:27:49.863Z,26.83
2022-09-01T11:28:51.618Z,26.82
2022-09-01T11:30:09.712Z,26.76
2022-09-01T11:31:19.318Z,26.73
2022-09-01T11:32:25.093Z,27.09
2022-09-01T11:33:38.050Z,27.26
2022-09-01T11:34:46.005Z,26.90
2022-09-01T11:35:47.985Z,27.05
2022-09-01T11:36:55.036Z,26.98
2022-09-01T11:38:03.655Z,26.82
2022-09-01T11:39:19.069Z,26.88
2022-09-01T11:40:26.162Z,26.50
2022-09-01T11:41:46.771Z,26.46
2022-09-01T11:42:53.802Z,26.46
2022-09-01T11:44:00.933Z,26.28
2022-09-01T11:45:21.748Z,26.54
2022-09-01T11:46:33.723Z,26.58
2022-09-01T11:47:45.136Z,26.42
2022-09-01T11:48:51.848Z,26.50
2022-09-01T11:50:03.434Z,26.33
2022-09-01T11:51:05.597Z,26.29
2022-09-01T11:52:14.157Z,25.97
2022-09-01T11:53:21.974Z,26.46
2022-09-01T11:54:25.186Z,26.46
2022-09-01T11:55:35.170Z,26.64
2022-09-01T11:56:37.079Z,26.56
2022-09-01T11:57:40.659Z,26.57
2022-09-01T11:58:42.658Z,26.67
2022-09-01T11:59:45.308Z,26.66
2022-09-01T12:00:47.615Z,26.48
2022-09-01T12:01:49.911Z,26.70
2022-09-01T12:02:54.451Z,26.86
2022-09-01T12:03:56.534Z,26.62
2022-09-01T12:04:58.316Z,26.65
2022-09-01T12:06:06.605Z,26.73
2022-09-01T12:07:13.198Z,26.69
2022-09-01T12:08:23.934Z,26.25
2022-09-01T12:09:34.869Z,26.38
2022-09-01T12:10:38.529Z,26.42
2022-09-01T12:11:41.886Z,26.48
2022-09-01T12:12:43.746Z,26.38
2022-09-01T12:14:15.822Z,26.45
2022-09-01T12:15:26.940Z,26.38
2022-09-01T12:16:30.432Z,26.25
2022-09-01T12:17:32.308Z,26.42
2022-09-01T12:18:39.729Z,26.61
2022-09-01T12:19:41.439Z,26.66
2022-09-01T12:20:43.328Z,26.77
2022-09-01T12:22:01.779Z,26.86
2022-09-01T12:23:04.396Z,26.74
2022-09-01T12:24:18.630Z,26.71
2022-09-01T12:25:28.175Z,26.77
2022-09-01T12:26:30.520Z,26.56
2022-09-01T12:27:32.231Z,26.80
2022-09-01T12:28:35.459Z,26.92
2022-09-01T12:29:38.039Z,26.65
2022-09-01T12:30:41.495Z,26.82
2022-09-01T12:31:46.272Z,26.71
2022-09-01T12:32:49.115Z,26.43
2022-09-01T12:33:52.916Z,26.59
2022-09-01T12:35:19.300Z,26.66
2022-09-01T12:36:30.960Z,26.16
2022-09-01T12:37:32.679Z,26.31
2022-09-01T12:38:34.414Z,26.25
2022-09-01T12:39:42.123Z,26.36
2022-09-01T12:40:44.243Z,26.19
2022-09-01T12:42:06.863Z,26.35
2022-09-01T12:43:08.616Z,26.17
2022-09-01T12:44:44.026Z,26.25
2022-09-01T12:45:47.775Z,26.23
2022-09-01T12:46:49.670Z,26.20
2022-09-01T12:47:51.723Z,26.18
2022-09-01T12:48:53.581Z,26.36
2022-09-01T12:49:55.748Z,26.35
2022-09-01T12:51:00.950Z,26.30
2022-09-01T12:52:22.065Z,26.50
2022-09-01T12:53:30.363Z,26.23
2022-09-01T12:54:32.574Z,25.93
2022-09-01T12:55:52.056Z,25.98
2022-09-01T12:56:53.895Z,25.80
2022-09-01T12:57:59.019Z,26.09
2022-09-01T12:59:14.240Z,26.34
2022-09-01T13:00:20.743Z,26.06
2022-09-01T13:01:32.589Z,26.21
2022-09-01T13:02:37.508Z,26.39
2022-09-01T13:03:39.339Z,26.51
2022-09-01T13:04:42.079Z,26.47
2022-09-01T13:05:53.562Z,27.23
2022-09-01T13:07:06.794Z,26.54
2022-09-01T13:08:14.500Z,26.79
2022-09-01T13:09:16.434Z,26.82
2022-09-01T13:10:18.739Z,26.95
2022-09-01T13:11:20.846Z,27.13
2022-09-01T13:12:22.646Z,26.86
2022-09-01T13:13:26.548Z,27.04
2022-09-01T13:14:31.263Z,26.85
2022-09-01T13:15:34.531Z,27.20
2022-09-01T13:16:37.333Z,27.03
2022-09-01T13:17:39.371Z,27.06
2022-09-01T13:20:06.931Z,27.01
2022-09-01T13:21:08.963Z,27.30
2022-09-01T13:22:10.888Z,27.29
2022-09-01T13:23:12.905Z,27.07
2022-09-01T13:24:14.795Z,27.13
2022-09-01T13:25:19.779Z,27.24
2022-09-01T13:26:21.647Z,27.12
2022-09-01T13:27:23.739Z,27.21
2022-09-01T13:29:32.835Z,27.34
2022-09-01T13:30:35.327Z,27.40
2022-09-01T13:31:37.409Z,27.44
2022-09-01T13:33:18.787Z,27.46
2022-09-01T13:34:21.752Z,27.30
2022-09-01T13:35:24.631Z,27.20
2022-09-01T13:36:43.620Z,27.44
2022-09-01T13:37:49.086Z,27.29
2022-09-01T13:38:50.826Z,27.68
2022-09-01T13:39:57.644Z,27.45
2022-09-01T13:41:00.523Z,27.43
2022-09-01T13:42:02.542Z,27.53
2022-09-01T13:43:05.194Z,27.47
2022-09-01T13:44:09.996Z,27.37
2022-09-01T13:45:13.355Z,27.57
2022-09-01T13:46:15.248Z,27.59
2022-09-01T13:47:32.450Z,27.59
2022-09-01T13:50:06.921Z,27.48
2022-09-01T13:51:15.472Z,27.54
2022-09-01T13:52:19.536Z,27.43
2022-09-01T13:53:22.201Z,27.63
2022-09-01T13:54:23.967Z,27.53
2022-09-01T13:55:28.709Z,27.66
2022-09-01T13:56:30.435Z,27.69
2022-09-01T13:57:36.241Z,27.55
2022-09-01T13:58:38.470Z,27.61
2022-09-01T13:59:41.933Z,27.51
2022-09-01T14:00:46.414Z,27.60
2022-09-01T14:01:48.558Z,27.64
2022-09-01T14:02:54.095Z,27.41
2022-09-01T14:04:00.266Z,27.34
2022-09-01T14:05:02.688Z,27.43
2022-09-01T14:06:06.136Z,27.39
2022-09-01T14:07:07.854Z,27.66
2022-09-01T14:08:12.641Z,27.63
2022-09-01T14:09:17.651Z,27.54
2022-09-01T14:10:21.151Z,27.57
2022-09-01T14:11:22.939Z,27.35
2022-09-01T14:12:24.795Z,27.53
2022-09-01T14:13:27.705Z,27.65
2022-09-01T14:15:10.854Z,27.64
2022-09-01T14:15:53.643Z,27.56
2022-09-01T14:16:55.486Z,27.57
2022-09-01T14:17:58.059Z,27.63
2022-09-01T14:19:02.794Z,27.76
2022-09-01T14:20:07.717Z,28.03
2022-09-01T14:21:14.943Z,27.97
2022-09-01T14:22:16.925Z,27.92
2022-09-01T14:23:19.613Z,27.69
2022-09-01T14:24:22.351Z,28.33
2022-09-01T14:25:24.546Z,28.22
2022-09-01T14:26:28.077Z,28.19
2022-09-01T14:27:30.034Z,28.33
2022-09-01T14:28:31.926Z,28.32
2022-09-01T14:29:33.842Z,28.37
2022-09-01T14:30:35.683Z,28.45
2022-09-01T14:31:37.935Z,28.27
2022-09-01T14:32:39.753Z,28.59
2022-09-01T14:33:42.859Z,28.29
2022-09-01T14:34:44.883Z,28.45
2022-09-01T14:35:48.376Z,28.35
2022-09-01T14:36:53.539Z,28.30
2022-09-01T14:37:56.108Z,28.07
2022-09-01T14:38:57.945Z,28.30
2022-09-01T14:39:59.719Z,28.17
2022-09-01T14:41:02.146Z,28.28
2022-09-01T14:42:06.855Z,28.39
2022-09-01T14:43:10.449Z,28.38
2022-09-01T14:44:12.145Z,28.25
2022-09-01T14:45:15.754Z,28.17
2022-09-01T14:46:19.358Z,28.42
2022-09-01T14:47:24.834Z,28.37
2022-09-01T14:48:26.663Z,28.33
2022-09-01T14:49:31.977Z,28.42
2022-09-01T14:50:35.020Z,28.53
2022-09-01T14:53:02.196Z,28.22
2022-09-01T14:54:04.822Z,28.37
2022-09-01T14:55:07.673Z,28.49
2022-09-01T14:56:09.535Z,28.39
2022-09-01T14:58:33.534Z,28.47
2022-09-01T14:59:36.784Z,28.47
2022-09-01T15:00:39.222Z,28.22
2022-09-01T15:01:43.094Z,28.51